Terminal Aerodrome Forecast
Issued by NWS Jacksonville, FL

Home | Current Version | Previous Version | Text Only | Print | Product List | Glossary On
Versions: 1 2 3 4 5 6 7 8 9 10 11 12 13 14 15 16 17 18 19 20 21 22 23 24 25 26 27 28 29 30 31 32 33
000
FTUS42 KJAX 041559 AAC
TAFJAX
TAF AMD
KJAX 041559Z 0416/0512 24008KT P6SM BKN021 OVC090
     FM041700 25007KT 6SM -TSRA BKN030CB BKN250
     FM041900 26008KT P6SM VCTS SCT030CB BKN200
     FM042300 21007KT P6SM SCT020 BKN060=

USA.gov is the U.S. government's official web portal to all federal, state and local government web resources and services.